sensor_id;sensor_type;location;lat;lon;timestamp;temperature;humidity
54178;DHT22;40085;53.004;6.770;2023-09-18T00:01:40;17.50;99.90
54178;DHT22;40085;53.004;6.770;2023-09-18T00:04:06;17.50;99.90
54178;DHT22;40085;53.004;6.770;2023-09-18T00:06:32;17.50;99.90
54178;DHT22;40085;53.004;6.770;2023-09-18T00:08:58;17.30;99.90
54178;DHT22;40085;53.004;6.770;2023-09-18T00:11:24;17.40;99.90
54178;DHT22;40085;53.004;6.770;2023-09-18T00:13:50;17.30;99.90
54178;DHT22;40085;53.004;6.770;2023-09-18T00:16:16;17.30;99.90
54178;DHT22;40085;53.004;6.770;2023-09-18T00:18:42;17.30;99.90
54178;DHT22;40085;53.004;6.770;2023-09-18T00:21:10;17.30;99.90
54178;DHT22;40085;53.004;6.770;2023-09-18T00:23:36;17.30;99.90
54178;DHT22;40085;53.004;6.770;2023-09-18T00:26:02;17.30;99.90
54178;DHT22;40085;53.004;6.770;2023-09-18T00:28:28;18.60;99.90
54178;DHT22;40085;53.004;6.770;2023-09-18T00:30:53;17.20;99.90
54178;DHT22;40085;53.004;6.770;2023-09-18T00:33:19;17.20;99.90
54178;DHT22;40085;53.004;6.770;2023-09-18T00:35:46;17.30;99.90
54178;DHT22;40085;53.004;6.770;2023-09-18T00:38:12;17.40;99.90
54178;DHT22;40085;53.004;6.770;2023-09-18T00:40:38;17.20;99.90
54178;DHT22;40085;53.004;6.770;2023-09-18T00:43:04;17.30;99.90
54178;DHT22;40085;53.004;6.770;2023-09-18T00:45:29;17.30;99.90
54178;DHT22;40085;53.004;6.770;2023-09-18T00:47:55;17.80;99.90
54178;DHT22;40085;53.004;6.770;2023-09-18T00:50:21;17.20;99.90
54178;DHT22;40085;53.004;6.770;2023-09-18T00:52:47;18.30;99.90
54178;DHT22;40085;53.004;6.770;2023-09-18T00:55:14;17.80;99.90
54178;DHT22;40085;53.004;6.770;2023-09-18T00:57:41;17.20;99.90
54178;DHT22;40085;53.004;6.770;2023-09-18T01:00:08;17.20;99.90
54178;DHT22;40085;53.004;6.770;2023-09-18T01:02:34;17.20;99.90
54178;DHT22;40085;53.004;6.770;2023-09-18T01:05:00;17.20;99.90
54178;DHT22;40085;53.004;6.770;2023-09-18T01:07:26;17.20;99.90
54178;DHT22;40085;53.004;6.770;2023-09-18T01:09:54;17.20;99.90
54178;DHT22;40085;53.004;6.770;2023-09-18T01:12:33;17.20;99.90
54178;DHT22;40085;53.004;6.770;2023-09-18T01:15:08;17.80;99.90
54178;DHT22;40085;53.004;6.770;2023-09-18T01:17:39;17.20;99.90
54178;DHT22;40085;53.004;6.770;2023-09-18T01:20:09;17.20;99.90
54178;DHT22;40085;53.004;6.770;2023-09-18T01:22:35;17.20;99.90
54178;DHT22;40085;53.004;6.770;2023-09-18T01:25:00;17.20;99.90
54178;DHT22;40085;53.004;6.770;2023-09-18T01:27:26;17.20;99.90
54178;DHT22;40085;53.004;6.770;2023-09-18T01:29:52;19.10;99.90
54178;DHT22;40085;53.004;6.770;2023-09-18T01:32:19;17.20;99.90
54178;DHT22;40085;53.004;6.770;2023-09-18T01:34:47;17.20;99.90
54178;DHT22;40085;53.004;6.770;2023-09-18T01:37:16;17.20;99.90
54178;DHT22;40085;53.004;6.770;2023-09-18T01:39:42;17.30;99.90
54178;DHT22;40085;53.004;6.770;2023-09-18T01:42:11;17.20;99.90
54178;DHT22;40085;53.004;6.770;2023-09-18T01:44:37;17.30;99.90
54178;DHT22;40085;53.004;6.770;2023-09-18T01:47:08;17.30;99.90
54178;DHT22;40085;53.004;6.770;2023-09-18T01:49:39;17.30;99.90
54178;DHT22;40085;53.004;6.770;2023-09-18T01:52:06;17.30;99.90
54178;DHT22;40085;53.004;6.770;2023-09-18T01:54:33;18.00;99.90
54178;DHT22;40085;53.004;6.770;2023-09-18T01:57:02;17.40;99.90
54178;DHT22;40085;53.004;6.770;2023-09-18T01:59:28;17.20;99.90
54178;DHT22;40085;53.004;6.770;2023-09-18T02:01:54;17.20;99.90
54178;DHT22;40085;53.004;6.770;2023-09-18T02:04:21;17.70;99.90
54178;DHT22;40085;53.004;6.770;2023-09-18T02:06:48;17.20;99.90
54178;DHT22;40085;53.004;6.770;2023-09-18T02:09:14;17.20;99.90
54178;DHT22;40085;53.004;6.770;2023-09-18T02:11:42;17.20;99.90
54178;DHT22;40085;53.004;6.770;2023-09-18T02:14:09;17.20;99.90
54178;DHT22;40085;53.004;6.770;2023-09-18T02:16:37;17.10;99.90
54178;DHT22;40085;53.004;6.770;2023-09-18T02:19:04;17.10;99.90
54178;DHT22;40085;53.004;6.770;2023-09-18T02:21:30;17.10;99.90
54178;DHT22;40085;53.004;6.770;2023-09-18T02:23:56;17.10;99.90
54178;DHT22;40085;53.004;6.770;2023-09-18T02:26:23;17.10;99.90
54178;DHT22;40085;53.004;6.770;2023-09-18T02:28:49;17.10;99.90
54178;DHT22;40085;53.004;6.770;2023-09-18T02:31:15;17.10;99.90
54178;DHT22;40085;53.004;6.770;2023-09-18T02:33:41;17.10;99.90
54178;DHT22;40085;53.004;6.770;2023-09-18T02:36:07;17.10;99.90
54178;DHT22;40085;53.004;6.770;2023-09-18T02:38:33;17.10;99.90
54178;DHT22;40085;53.004;6.770;2023-09-18T02:40:59;17.00;99.90
54178;DHT22;40085;53.004;6.770;2023-09-18T02:43:25;17.10;99.90
54178;DHT22;40085;53.004;6.770;2023-09-18T02:45:51;17.10;99.90
54178;DHT22;40085;53.004;6.770;2023-09-18T02:48:17;17.10;99.90
54178;DHT22;40085;53.004;6.770;2023-09-18T02:50:43;17.10;99.90
54178;DHT22;40085;53.004;6.770;2023-09-18T02:53:20;17.10;99.90
54178;DHT22;40085;53.004;6.770;2023-09-18T02:55:54;17.10;99.90
54178;DHT22;40085;53.004;6.770;2023-09-18T02:58:20;17.00;99.90
54178;DHT22;40085;53.004;6.770;2023-09-18T03:00:47;17.10;99.90
54178;DHT22;40085;53.004;6.770;2023-09-18T03:03:14;17.10;99.90
54178;DHT22;40085;53.004;6.770;2023-09-18T03:05:41;17.10;99.90
54178;DHT22;40085;53.004;6.770;2023-09-18T03:08:07;17.00;99.90
54178;DHT22;40085;53.004;6.770;2023-09-18T03:10:38;17.00;99.90
54178;DHT22;40085;53.004;6.770;2023-09-18T03:13:13;17.00;99.90
54178;DHT22;40085;53.004;6.770;2023-09-18T03:15:39;17.00;99.90
54178;DHT22;40085;53.004;6.770;2023-09-18T03:18:06;16.90;99.90
54178;DHT22;40085;53.004;6.770;2023-09-18T03:20:32;17.00;99.90
54178;DHT22;40085;53.004;6.770;2023-09-18T03:23:00;16.90;99.90
54178;DHT22;40085;53.004;6.770;2023-09-18T03:25:26;16.90;99.90
54178;DHT22;40085;53.004;6.770;2023-09-18T03:27:53;17.00;99.90
54178;DHT22;40085;53.004;6.770;2023-09-18T03:30:19;16.90;99.90
54178;DHT22;40085;53.004;6.770;2023-09-18T03:32:45;17.00;99.90
54178;DHT22;40085;53.004;6.770;2023-09-18T03:35:11;17.00;99.90
54178;DHT22;40085;53.004;6.770;2023-09-18T03:37:53;16.90;99.90
54178;DHT22;40085;53.004;6.770;2023-09-18T03:40:22;16.90;99.90
54178;DHT22;40085;53.004;6.770;2023-09-18T03:42:48;17.00;99.90
54178;DHT22;40085;53.004;6.770;2023-09-18T03:45:14;16.90;99.90
54178;DHT22;40085;53.004;6.770;2023-09-18T03:47:41;16.90;99.90
54178;DHT22;40085;53.004;6.770;2023-09-18T03:50:10;16.90;99.90
54178;DHT22;40085;53.004;6.770;2023-09-18T03:52:37;16.90;99.90
54178;DHT22;40085;53.004;6.770;2023-09-18T03:55:04;16.90;99.90
54178;DHT22;40085;53.004;6.770;2023-09-18T03:57:30;16.90;99.90
54178;DHT22;40085;53.004;6.770;2023-09-18T03:59:56;16.90;99.90
54178;DHT22;40085;53.004;6.770;2023-09-18T04:02:24;17.00;99.90
54178;DHT22;40085;53.004;6.770;2023-09-18T04:04:50;17.00;99.90
54178;DHT22;40085;53.004;6.770;2023-09-18T04:07:16;17.00;99.90
54178;DHT22;40085;53.004;6.770;2023-09-18T04:09:42;17.00;99.90
54178;DHT22;40085;53.004;6.770;2023-09-18T04:12:08;17.00;99.90
54178;DHT22;40085;53.004;6.770;2023-09-18T04:14:33;17.00;99.90
54178;DHT22;40085;53.004;6.770;2023-09-18T04:16:59;17.00;99.90
54178;DHT22;40085;53.004;6.770;2023-09-18T04:19:28;17.00;99.90
54178;DHT22;40085;53.004;6.770;2023-09-18T04:21:54;17.00;99.90
54178;DHT22;40085;53.004;6.770;2023-09-18T04:24:20;17.00;99.90
54178;DHT22;40085;53.004;6.770;2023-09-18T04:26:45;17.00;99.90
54178;DHT22;40085;53.004;6.770;2023-09-18T04:29:11;17.00;99.90
54178;DHT22;40085;53.004;6.770;2023-09-18T04:31:37;17.00;99.90
54178;DHT22;40085;53.004;6.770;2023-09-18T04:34:03;17.10;99.90
54178;DHT22;40085;53.004;6.770;2023-09-18T04:36:29;17.00;99.90
54178;DHT22;40085;53.004;6.770;2023-09-18T04:38:55;17.00;99.90
54178;DHT22;40085;53.004;6.770;2023-09-18T04:41:21;17.00;99.90
54178;DHT22;40085;53.004;6.770;2023-09-18T04:43:46;17.00;99.90
54178;DHT22;40085;53.004;6.770;2023-09-18T04:46:12;17.10;99.90
54178;DHT22;40085;53.004;6.770;2023-09-18T04:48:38;17.10;99.90
54178;DHT22;40085;53.004;6.770;2023-09-18T04:51:04;17.30;99.90
54178;DHT22;40085;53.004;6.770;2023-09-18T04:53:31;17.50;99.90
54178;DHT22;40085;53.004;6.770;2023-09-18T04:55:56;17.10;99.90
54178;DHT22;40085;53.004;6.770;2023-09-18T04:58:22;17.10;99.90
54178;DHT22;40085;53.004;6.770;2023-09-18T05:00:58;17.10;99.90
54178;DHT22;40085;53.004;6.770;2023-09-18T05:03:24;17.20;99.90
54178;DHT22;40085;53.004;6.770;2023-09-18T05:05:50;17.20;99.90
54178;DHT22;40085;53.004;6.770;2023-09-18T05:08:16;17.20;99.90
54178;DHT22;40085;53.004;6.770;2023-09-18T05:10:42;17.30;99.90
54178;DHT22;40085;53.004;6.770;2023-09-18T05:13:09;17.20;99.90
54178;DHT22;40085;53.004;6.770;2023-09-18T05:15:35;17.20;99.90
54178;DHT22;40085;53.004;6.770;2023-09-18T05:18:00;17.20;99.90
54178;DHT22;40085;53.004;6.770;2023-09-18T05:20:28;17.30;99.90
54178;DHT22;40085;53.004;6.770;2023-09-18T05:22:55;17.30;99.90
54178;DHT22;40085;53.004;6.770;2023-09-18T05:25:21;17.30;99.90
54178;DHT22;40085;53.004;6.770;2023-09-18T05:27:48;17.40;99.90
54178;DHT22;40085;53.004;6.770;2023-09-18T05:30:24;17.40;99.90
54178;DHT22;40085;53.004;6.770;2023-09-18T05:32:50;17.50;99.90
54178;DHT22;40085;53.004;6.770;2023-09-18T05:35:16;17.50;99.90
54178;DHT22;40085;53.004;6.770;2023-09-18T05:37:42;17.60;99.90
54178;DHT22;40085;53.004;6.770;2023-09-18T05:40:10;17.60;99.90
54178;DHT22;40085;53.004;6.770;2023-09-18T05:42:36;17.60;99.90
54178;DHT22;40085;53.004;6.770;2023-09-18T05:45:03;17.60;99.90
54178;DHT22;40085;53.004;6.770;2023-09-18T05:47:31;17.60;99.90
54178;DHT22;40085;53.004;6.770;2023-09-18T05:49:57;17.70;99.90
54178;DHT22;40085;53.004;6.770;2023-09-18T05:52:22;17.70;99.90
54178;DHT22;40085;53.004;6.770;2023-09-18T05:54:49;17.70;99.90
54178;DHT22;40085;53.004;6.770;2023-09-18T05:57:15;17.70;99.90
54178;DHT22;40085;53.004;6.770;2023-09-18T05:59:41;17.70;99.90
54178;DHT22;40085;53.004;6.770;2023-09-18T06:02:09;17.70;99.90
54178;DHT22;40085;53.004;6.770;2023-09-18T06:04:34;17.80;99.90
54178;DHT22;40085;53.004;6.770;2023-09-18T06:07:05;18.20;99.90
54178;DHT22;40085;53.004;6.770;2023-09-18T06:09:31;17.80;99.90
54178;DHT22;40085;53.004;6.770;2023-09-18T06:11:56;17.90;99.90
54178;DHT22;40085;53.004;6.770;2023-09-18T06:14:22;17.90;99.90
54178;DHT22;40085;53.004;6.770;2023-09-18T06:16:48;18.00;99.90
54178;DHT22;40085;53.004;6.770;2023-09-18T06:19:16;18.00;99.90
54178;DHT22;40085;53.004;6.770;2023-09-18T06:21:43;18.10;99.90
54178;DHT22;40085;53.004;6.770;2023-09-18T06:24:09;18.10;99.90
54178;DHT22;40085;53.004;6.770;2023-09-18T06:26:34;18.10;99.90
54178;DHT22;40085;53.004;6.770;2023-09-18T06:29:01;18.20;99.90
54178;DHT22;40085;53.004;6.770;2023-09-18T06:31:28;18.20;99.90
54178;DHT22;40085;53.004;6.770;2023-09-18T06:33:53;18.20;99.90
54178;DHT22;40085;53.004;6.770;2023-09-18T06:36:19;18.20;99.90
54178;DHT22;40085;53.004;6.770;2023-09-18T06:38:44;18.20;99.90
54178;DHT22;40085;53.004;6.770;2023-09-18T06:41:10;18.30;99.90
54178;DHT22;40085;53.004;6.770;2023-09-18T06:43:35;18.30;99.90
54178;DHT22;40085;53.004;6.770;2023-09-18T06:46:01;18.30;99.90
54178;DHT22;40085;53.004;6.770;2023-09-18T06:48:27;18.30;99.90
54178;DHT22;40085;53.004;6.770;2023-09-18T06:50:58;18.30;99.90
54178;DHT22;40085;53.004;6.770;2023-09-18T06:53:23;18.30;99.90
54178;DHT22;40085;53.004;6.770;2023-09-18T06:55:49;18.70;99.90
54178;DHT22;40085;53.004;6.770;2023-09-18T06:58:14;18.30;99.90
54178;DHT22;40085;53.004;6.770;2023-09-18T07:00:40;18.30;99.90
54178;DHT22;40085;53.004;6.770;2023-09-18T07:03:05;18.30;99.90
54178;DHT22;40085;53.004;6.770;2023-09-18T07:05:31;18.20;99.90
54178;DHT22;40085;53.004;6.770;2023-09-18T07:07:57;18.00;99.90
54178;DHT22;40085;53.004;6.770;2023-09-18T07:10:23;18.20;99.90
54178;DHT22;40085;53.004;6.770;2023-09-18T07:12:49;18.10;99.90
54178;DHT22;40085;53.004;6.770;2023-09-18T07:15:14;18.10;99.90
54178;DHT22;40085;53.004;6.770;2023-09-18T07:17:40;18.10;99.90
54178;DHT22;40085;53.004;6.770;2023-09-18T07:20:06;18.10;99.90
54178;DHT22;40085;53.004;6.770;2023-09-18T07:22:39;18.10;99.90
54178;DHT22;40085;53.004;6.770;2023-09-18T07:25:06;18.10;99.90
54178;DHT22;40085;53.004;6.770;2023-09-18T07:27:32;18.10;99.90
54178;DHT22;40085;53.004;6.770;2023-09-18T07:29:58;18.30;99.90
54178;DHT22;40085;53.004;6.770;2023-09-18T07:32:24;18.10;99.90
54178;DHT22;40085;53.004;6.770;2023-09-18T07:34:52;18.10;99.90
54178;DHT22;40085;53.004;6.770;2023-09-18T07:37:17;18.00;99.90
54178;DHT22;40085;53.004;6.770;2023-09-18T07:39:46;18.10;99.90
54178;DHT22;40085;53.004;6.770;2023-09-18T07:42:12;18.10;99.90
54178;DHT22;40085;53.004;6.770;2023-09-18T07:44:37;18.20;99.90
54178;DHT22;40085;53.004;6.770;2023-09-18T07:47:03;18.60;99.90
54178;DHT22;40085;53.004;6.770;2023-09-18T07:49:29;18.10;99.90
54178;DHT22;40085;53.004;6.770;2023-09-18T07:51:55;18.10;99.90
54178;DHT22;40085;53.004;6.770;2023-09-18T07:54:20;18.10;99.90
54178;DHT22;40085;53.004;6.770;2023-09-18T07:56:46;18.20;99.90
54178;DHT22;40085;53.004;6.770;2023-09-18T07:59:11;18.20;99.90
54178;DHT22;40085;53.004;6.770;2023-09-18T08:01:40;18.30;99.90
54178;DHT22;40085;53.004;6.770;2023-09-18T08:04:06;18.30;99.90
54178;DHT22;40085;53.004;6.770;2023-09-18T08:06:31;18.40;99.90
54178;DHT22;40085;53.004;6.770;2023-09-18T08:08:58;18.40;99.90
54178;DHT22;40085;53.004;6.770;2023-09-18T08:11:23;18.40;99.90
54178;DHT22;40085;53.004;6.770;2023-09-18T08:13:49;18.40;99.90
54178;DHT22;40085;53.004;6.770;2023-09-18T08:16:14;18.40;99.90
54178;DHT22;40085;53.004;6.770;2023-09-18T08:18:40;18.40;99.90
54178;DHT22;40085;53.004;6.770;2023-09-18T08:21:07;18.70;99.90
54178;DHT22;40085;53.004;6.770;2023-09-18T08:23:37;18.40;99.90
54178;DHT22;40085;53.004;6.770;2023-09-18T08:26:03;18.40;99.90
54178;DHT22;40085;53.004;6.770;2023-09-18T08:28:29;18.50;99.90
54178;DHT22;40085;53.004;6.770;2023-09-18T08:30:55;18.50;99.90
54178;DHT22;40085;53.004;6.770;2023-09-18T08:33:21;18.60;99.90
54178;DHT22;40085;53.004;6.770;2023-09-18T08:35:46;18.50;99.90
54178;DHT22;40085;53.004;6.770;2023-09-18T08:38:13;18.50;99.90
54178;DHT22;40085;53.004;6.770;2023-09-18T08:40:40;18.40;99.90
54178;DHT22;40085;53.004;6.770;2023-09-18T08:43:07;18.40;99.90
54178;DHT22;40085;53.004;6.770;2023-09-18T08:45:53;18.40;99.90
54178;DHT22;40085;53.004;6.770;2023-09-18T08:48:20;18.40;99.90
54178;DHT22;40085;53.004;6.770;2023-09-18T08:50:47;18.50;99.90
54178;DHT22;40085;53.004;6.770;2023-09-18T08:53:14;18.50;99.90
54178;DHT22;40085;53.004;6.770;2023-09-18T08:55:40;18.50;99.90
54178;DHT22;40085;53.004;6.770;2023-09-18T08:58:07;18.60;99.90
54178;DHT22;40085;53.004;6.770;2023-09-18T09:00:38;18.60;99.90
54178;DHT22;40085;53.004;6.770;2023-09-18T09:03:04;18.60;99.90
54178;DHT22;40085;53.004;6.770;2023-09-18T09:05:30;18.60;99.90
54178;DHT22;40085;53.004;6.770;2023-09-18T09:07:56;18.60;99.90
54178;DHT22;40085;53.004;6.770;2023-09-18T09:10:22;18.60;99.90
54178;DHT22;40085;53.004;6.770;2023-09-18T09:12:56;18.70;99.90
54178;DHT22;40085;53.004;6.770;2023-09-18T09:15:31;18.80;99.90
54178;DHT22;40085;53.004;6.770;2023-09-18T09:18:08;18.70;99.90
54178;DHT22;40085;53.004;6.770;2023-09-18T09:20:36;18.70;99.90
54178;DHT22;40085;53.004;6.770;2023-09-18T09:23:04;18.90;99.90
54178;DHT22;40085;53.004;6.770;2023-09-18T09:25:31;18.70;99.90
54178;DHT22;40085;53.004;6.770;2023-09-18T09:28:02;18.70;99.90
54178;DHT22;40085;53.004;6.770;2023-09-18T09:30:29;18.70;99.90
54178;DHT22;40085;53.004;6.770;2023-09-18T09:32:56;18.70;99.90
54178;DHT22;40085;53.004;6.770;2023-09-18T09:35:26;19.20;99.90
54178;DHT22;40085;53.004;6.770;2023-09-18T09:37:55;18.90;99.90
54178;DHT22;40085;53.004;6.770;2023-09-18T09:40:22;19.00;99.90
54178;DHT22;40085;53.004;6.770;2023-09-18T09:42:54;19.00;99.90
54178;DHT22;40085;53.004;6.770;2023-09-18T09:45:30;19.00;99.90
54178;DHT22;40085;53.004;6.770;2023-09-18T09:47:57;19.20;99.90
54178;DHT22;40085;53.004;6.770;2023-09-18T09:50:23;19.20;99.90
54178;DHT22;40085;53.004;6.770;2023-09-18T09:52:51;19.30;99.90
54178;DHT22;40085;53.004;6.770;2023-09-18T09:55:26;19.40;99.90
54178;DHT22;40085;53.004;6.770;2023-09-18T09:58:04;19.60;99.90
54178;DHT22;40085;53.004;6.770;2023-09-18T10:00:56;20.30;99.90
54178;DHT22;40085;53.004;6.770;2023-09-18T10:03:25;19.70;99.90
54178;DHT22;40085;53.004;6.770;2023-09-18T10:05:51;19.80;99.90
54178;DHT22;40085;53.004;6.770;2023-09-18T10:08:24;19.90;99.90
54178;DHT22;40085;53.004;6.770;2023-09-18T10:10:53;20.00;99.90
54178;DHT22;40085;53.004;6.770;2023-09-18T10:13:47;20.00;99.90
54178;DHT22;40085;53.004;6.770;2023-09-18T10:16:17;20.00;99.90
54178;DHT22;40085;53.004;6.770;2023-09-18T10:21:58;20.00;99.90
54178;DHT22;40085;53.004;6.770;2023-09-18T10:24:28;20.10;99.90
54178;DHT22;40085;53.004;6.770;2023-09-18T10:27:02;20.10;99.90
54178;DHT22;40085;53.004;6.770;2023-09-18T10:29:29;20.10;99.90
54178;DHT22;40085;53.004;6.770;2023-09-18T10:34:24;20.20;99.90
54178;DHT22;40085;53.004;6.770;2023-09-18T10:36:51;20.40;99.90
54178;DHT22;40085;53.004;6.770;2023-09-18T10:39:17;20.50;99.90
54178;DHT22;40085;53.004;6.770;2023-09-18T10:41:52;20.40;99.90
54178;DHT22;40085;53.004;6.770;2023-09-18T10:44:19;20.30;99.90
54178;DHT22;40085;53.004;6.770;2023-09-18T10:46:45;20.70;99.90
54178;DHT22;40085;53.004;6.770;2023-09-18T10:49:11;20.60;99.90
54178;DHT22;40085;53.004;6.770;2023-09-18T10:51:37;21.40;99.90
54178;DHT22;40085;53.004;6.770;2023-09-18T10:54:11;20.80;99.90
54178;DHT22;40085;53.004;6.770;2023-09-18T10:56:41;21.00;99.90
54178;DHT22;40085;53.004;6.770;2023-09-18T10:59:07;20.70;99.90
54178;DHT22;40085;53.004;6.770;2023-09-18T11:01:34;21.00;99.90
54178;DHT22;40085;53.004;6.770;2023-09-18T11:04:03;20.80;99.90
54178;DHT22;40085;53.004;6.770;2023-09-18T11:06:30;21.00;99.90
54178;DHT22;40085;53.004;6.770;2023-09-18T11:09:05;21.10;99.90
54178;DHT22;40085;53.004;6.770;2023-09-18T11:11:32;21.10;99.90
54178;DHT22;40085;53.004;6.770;2023-09-18T11:14:01;21.10;99.90
54178;DHT22;40085;53.004;6.770;2023-09-18T11:21:27;21.50;99.90
54178;DHT22;40085;53.004;6.770;2023-09-18T11:24:07;21.20;99.90
54178;DHT22;40085;53.004;6.770;2023-09-18T11:26:40;21.20;99.90
54178;DHT22;40085;53.004;6.770;2023-09-18T11:29:07;21.10;99.90
54178;DHT22;40085;53.004;6.770;2023-09-18T11:31:51;20.80;99.90
54178;DHT22;40085;53.004;6.770;2023-09-18T11:36:49;21.00;99.90
54178;DHT22;40085;53.004;6.770;2023-09-18T11:42:14;21.00;99.90
54178;DHT22;40085;53.004;6.770;2023-09-18T11:44:41;20.90;99.90
54178;DHT22;40085;53.004;6.770;2023-09-18T11:47:11;21.40;99.90
54178;DHT22;40085;53.004;6.770;2023-09-18T11:49:47;21.50;99.90
54178;DHT22;40085;53.004;6.770;2023-09-18T11:52:16;21.50;99.90
54178;DHT22;40085;53.004;6.770;2023-09-18T11:54:43;21.20;99.90
54178;DHT22;40085;53.004;6.770;2023-09-18T11:57:09;21.20;99.90
54178;DHT22;40085;53.004;6.770;2023-09-18T11:59:39;21.50;99.90
54178;DHT22;40085;53.004;6.770;2023-09-18T12:02:06;21.50;99.90
54178;DHT22;40085;53.004;6.770;2023-09-18T12:04:34;21.60;99.90
54178;DHT22;40085;53.004;6.770;2023-09-18T12:07:00;21.20;99.90
54178;DHT22;40085;53.004;6.770;2023-09-18T12:09:31;21.40;99.90
54178;DHT22;40085;53.004;6.770;2023-09-18T12:12:00;21.30;99.90
54178;DHT22;40085;53.004;6.770;2023-09-18T12:14:33;21.20;99.90
54178;DHT22;40085;53.004;6.770;2023-09-18T12:17:02;21.10;99.90
54178;DHT22;40085;53.004;6.770;2023-09-18T12:19:29;20.90;99.90
54178;DHT22;40085;53.004;6.770;2023-09-18T12:21:56;20.90;99.90
54178;DHT22;40085;53.004;6.770;2023-09-18T12:24:22;20.60;99.90
54178;DHT22;40085;53.004;6.770;2023-09-18T12:26:49;20.60;99.90
54178;DHT22;40085;53.004;6.770;2023-09-18T12:29:15;20.90;99.90
54178;DHT22;40085;53.004;6.770;2023-09-18T12:31:41;20.60;99.90
54178;DHT22;40085;53.004;6.770;2023-09-18T12:34:18;21.20;99.90
54178;DHT22;40085;53.004;6.770;2023-09-18T12:36:47;21.00;99.90
54178;DHT22;40085;53.004;6.770;2023-09-18T12:39:13;21.10;99.90
54178;DHT22;40085;53.004;6.770;2023-09-18T12:41:44;21.20;99.90
54178;DHT22;40085;53.004;6.770;2023-09-18T12:44:10;22.10;99.90
54178;DHT22;40085;53.004;6.770;2023-09-18T12:46:36;21.60;99.90
54178;DHT22;40085;53.004;6.770;2023-09-18T12:49:22;21.60;99.90
54178;DHT22;40085;53.004;6.770;2023-09-18T12:51:57;21.50;99.90
54178;DHT22;40085;53.004;6.770;2023-09-18T12:54:40;22.30;99.90
54178;DHT22;40085;53.004;6.770;2023-09-18T12:57:06;21.90;99.90
54178;DHT22;40085;53.004;6.770;2023-09-18T12:59:33;21.80;99.90
54178;DHT22;40085;53.004;6.770;2023-09-18T13:02:02;21.80;99.90
54178;DHT22;40085;53.004;6.770;2023-09-18T13:04:33;21.70;99.90
54178;DHT22;40085;53.004;6.770;2023-09-18T13:07:06;21.70;99.90
54178;DHT22;40085;53.004;6.770;2023-09-18T13:09:32;21.70;99.90
54178;DHT22;40085;53.004;6.770;2023-09-18T13:11:58;21.70;99.90
54178;DHT22;40085;53.004;6.770;2023-09-18T13:14:26;21.70;99.90
54178;DHT22;40085;53.004;6.770;2023-09-18T13:16:52;21.70;99.90
54178;DHT22;40085;53.004;6.770;2023-09-18T13:19:19;21.70;99.90
54178;DHT22;40085;53.004;6.770;2023-09-18T13:21:51;21.90;99.90
54178;DHT22;40085;53.004;6.770;2023-09-18T13:26:53;21.80;99.90
54178;DHT22;40085;53.004;6.770;2023-09-18T13:29:19;21.90;99.90
54178;DHT22;40085;53.004;6.770;2023-09-18T13:31:44;21.90;99.90
54178;DHT22;40085;53.004;6.770;2023-09-18T13:34:10;21.90;99.90
54178;DHT22;40085;53.004;6.770;2023-09-18T13:36:36;22.00;99.90
54178;DHT22;40085;53.004;6.770;2023-09-18T13:39:03;22.00;99.90
54178;DHT22;40085;53.004;6.770;2023-09-18T13:41:29;21.90;99.90
54178;DHT22;40085;53.004;6.770;2023-09-18T13:43:54;21.90;99.90
54178;DHT22;40085;53.004;6.770;2023-09-18T13:46:21;21.90;99.90
54178;DHT22;40085;53.004;6.770;2023-09-18T13:48:47;21.80;99.90
54178;DHT22;40085;53.004;6.770;2023-09-18T13:51:13;21.90;99.90
54178;DHT22;40085;53.004;6.770;2023-09-18T13:53:39;21.90;99.90
54178;DHT22;40085;53.004;6.770;2023-09-18T13:56:06;22.20;99.90
54178;DHT22;40085;53.004;6.770;2023-09-18T13:58:32;22.00;97.00
54178;DHT22;40085;53.004;6.770;2023-09-18T14:00:59;22.00;94.90
54178;DHT22;40085;53.004;6.770;2023-09-18T14:03:24;22.00;94.50
54178;DHT22;40085;53.004;6.770;2023-09-18T14:05:50;21.90;95.40
54178;DHT22;40085;53.004;6.770;2023-09-18T14:08:16;21.90;95.20
54178;DHT22;40085;53.004;6.770;2023-09-18T14:10:43;21.90;94.90
54178;DHT22;40085;53.004;6.770;2023-09-18T14:13:09;22.00;91.90
54178;DHT22;40085;53.004;6.770;2023-09-18T14:15:35;22.00;88.80
54178;DHT22;40085;53.004;6.770;2023-09-18T14:18:00;22.10;89.10
54178;DHT22;40085;53.004;6.770;2023-09-18T14:20:26;21.90;86.10
54178;DHT22;40085;53.004;6.770;2023-09-18T14:22:51;21.90;82.40
54178;DHT22;40085;53.004;6.770;2023-09-18T14:25:18;21.90;88.90
54178;DHT22;40085;53.004;6.770;2023-09-18T14:27:45;21.70;91.20
54178;DHT22;40085;53.004;6.770;2023-09-18T14:30:11;21.60;91.50
54178;DHT22;40085;53.004;6.770;2023-09-18T14:32:39;21.70;82.00
54178;DHT22;40085;53.004;6.770;2023-09-18T14:35:05;21.70;85.20
54178;DHT22;40085;53.004;6.770;2023-09-18T14:37:34;21.70;79.20
54178;DHT22;40085;53.004;6.770;2023-09-18T14:40:00;21.70;89.60
54178;DHT22;40085;53.004;6.770;2023-09-18T14:42:25;21.60;89.30
54178;DHT22;40085;53.004;6.770;2023-09-18T14:44:51;21.70;91.30
54178;DHT22;40085;53.004;6.770;2023-09-18T14:47:17;21.60;90.30
54178;DHT22;40085;53.004;6.770;2023-09-18T14:49:42;21.90;90.80
54178;DHT22;40085;53.004;6.770;2023-09-18T14:52:13;21.50;91.90
54178;DHT22;40085;53.004;6.770;2023-09-18T14:54:40;21.50;79.70
54178;DHT22;40085;53.004;6.770;2023-09-18T14:57:06;21.50;88.00
54178;DHT22;40085;53.004;6.770;2023-09-18T14:59:31;21.70;90.00
54178;DHT22;40085;53.004;6.770;2023-09-18T15:01:57;22.00;89.60
54178;DHT22;40085;53.004;6.770;2023-09-18T15:04:23;21.60;86.90
54178;DHT22;40085;53.004;6.770;2023-09-18T15:06:48;21.90;86.70
54178;DHT22;40085;53.004;6.770;2023-09-18T15:09:14;22.00;75.20
54178;DHT22;40085;53.004;6.770;2023-09-18T15:11:39;22.10;66.20
54178;DHT22;40085;53.004;6.770;2023-09-18T15:14:05;22.10;66.30
54178;DHT22;40085;53.004;6.770;2023-09-18T15:16:31;22.00;71.00
54178;DHT22;40085;53.004;6.770;2023-09-18T15:18:57;22.00;67.10
54178;DHT22;40085;53.004;6.770;2023-09-18T15:21:29;22.00;75.20
54178;DHT22;40085;53.004;6.770;2023-09-18T15:23:55;21.90;69.20
54178;DHT22;40085;53.004;6.770;2023-09-18T15:26:20;21.80;61.90
54178;DHT22;40085;53.004;6.770;2023-09-18T15:28:46;21.70;71.60
54178;DHT22;40085;53.004;6.770;2023-09-18T15:31:11;21.70;70.50
54178;DHT22;40085;53.004;6.770;2023-09-18T15:33:37;21.60;56.00
54178;DHT22;40085;53.004;6.770;2023-09-18T15:36:03;21.60;67.90
54178;DHT22;40085;53.004;6.770;2023-09-18T15:38:29;21.60;68.50
54178;DHT22;40085;53.004;6.770;2023-09-18T15:40:55;21.50;66.30
54178;DHT22;40085;53.004;6.770;2023-09-18T15:43:20;21.40;68.30
54178;DHT22;40085;53.004;6.770;2023-09-18T15:45:46;21.80;73.80
54178;DHT22;40085;53.004;6.770;2023-09-18T15:48:12;21.30;74.80
54178;DHT22;40085;53.004;6.770;2023-09-18T15:50:37;21.30;68.80